Time;durP1;ratioP1;P1;durP2;ratioP2;P2;SDS_P1;SDS_P2;PMS_P1;PMS_P2;Temp;Humidity;BMP_temperature;BMP_pressure;BME280_temperature;BME280_humidity;BME280_pressure;Samples;Min_cycle;Max_cycle;Signal;HPM_P1;HPM_P2
2022/03/21 06:00:59;;;;;;;1999.90;999.90;;;;;;;;;;6182840;23;20213;-69
2022/03/21 06:03:44;;;;;;;1999.90;999.90;;;;;;;;;;6214968;23;20175;-69
2022/03/21 06:06:29;;;;;;;1999.90;999.90;;;;;;;;;;6214909;23;20256;-69
2022/03/21 06:09:15;;;;;;;1999.90;999.90;;;;;;;;;;6213886;23;20186;-68
2022/03/21 06:12:01;;;;;;;1999.90;999.90;;;;;;;;;;6166917;23;20198;-68
2022/03/21 06:14:46;;;;;;;1999.90;999.90;;;;;;;;;;6184948;23;20226;-67
2022/03/21 06:17:38;;;;;;;1999.90;999.90;;;;;;;;;;6182930;23;20399;-67
2022/03/21 06:20:24;;;;;;;1999.90;999.90;;;;;;;;;;6184792;23;20258;-68
2022/03/21 06:23:09;;;;;;;1999.90;999.90;;;;;;;;;;6184762;23;20229;-67
2022/03/21 06:25:55;;;;;;;1999.90;999.90;;;;;;;;;;6183770;23;20242;-68
2022/03/21 06:28:39;;;;;;;1999.90;999.90;;;;;;;;;;6183600;23;20165;-69
2022/03/21 06:31:24;;;;;;;1999.90;999.90;;;;;;;;;;6184206;23;20665;-69
2022/03/21 06:34:10;;;;;;;1999.90;999.90;;;;;;;;;;6184536;23;20169;-68
2022/03/21 06:36:57;;;;;;;1999.90;999.90;;;;;;;;;;6184526;23;20625;-68
2022/03/21 06:39:42;;;;;;;1999.90;999.90;;;;;;;;;;6183579;23;20186;-69
2022/03/21 06:42:27;;;;;;;1999.90;999.90;;;;;;;;;;6184210;23;20206;-68
2022/03/21 06:45:12;;;;;;;1999.90;999.90;;;;;;;;;;6182735;23;20368;-68
2022/03/21 06:47:57;;;;;;;1999.90;999.90;;;;;;;;;;6183516;23;20223;-68
2022/03/21 06:50:46;;;;;;;1999.90;999.90;;;;;;;;;;6184428;23;20208;-68
2022/03/21 06:53:30;;;;;;;1999.90;999.90;;;;;;;;;;6184476;23;20170;-68
2022/03/21 06:56:15;;;;;;;1999.90;999.90;;;;;;;;;;6184277;23;20188;-68
2022/03/21 06:59:01;;;;;;;1999.90;999.90;;;;;;;;;;6183335;23;20261;-68
2022/03/21 07:01:46;;;;;;;1999.90;999.90;;;;;;;;;;6183975;23;20236;-68
2022/03/21 07:04:31;;;;;;;1999.90;999.90;;;;;;;;;;6184342;23;20261;-68
2022/03/21 07:07:17;;;;;;;1999.90;999.90;;;;;;;;;;6184170;23;20173;-65
2022/03/21 07:10:05;;;;;;;1999.90;999.90;;;;;;;;;;6183760;23;20664;-68
2022/03/21 07:12:51;;;;;;;1999.90;999.90;;;;;;;;;;6184146;23;20166;-68
2022/03/21 07:15:37;;;;;;;1999.90;999.90;;;;;;;;;;6184139;23;20174;-68
2022/03/21 07:18:22;;;;;;;1999.90;999.90;;;;;;;;;;6183207;23;20629;-68
2022/03/21 07:21:06;;;;;;;1999.90;999.90;;;;;;;;;;6184041;23;20217;-68
2022/03/21 07:23:53;;;;;;;1999.90;999.90;;;;;;;;;;6183935;23;20194;-68
2022/03/21 07:26:38;;;;;;;1999.90;999.90;;;;;;;;;;6184018;23;20166;-68
2022/03/21 07:29:23;;;;;;;1999.90;999.90;;;;;;;;;;6183190;23;20174;-68
2022/03/21 07:32:08;;;;;;;1999.90;999.90;;;;;;;;;;6183939;23;20213;-68
2022/03/21 07:34:53;;;;;;;1999.90;999.90;;;;;;;;;;6184112;23;20686;-67
2022/03/21 07:37:41;;;;;;;1999.90;999.90;;;;;;;;;;6183538;23;20186;-68
2022/03/21 07:40:28;;;;;;;1999.90;999.90;;;;;;;;;;6183852;23;20171;-68
2022/03/21 07:43:13;;;;;;;1999.90;999.90;;;;;;;;;;6183433;23;20194;-68
2022/03/21 07:49:02;;;;;;;1999.90;999.90;;;;;;;;;;6181884;23;20400;-67
2022/03/21 07:51:47;;;;;;;1999.90;999.90;;;;;;;;;;6183348;23;20202;-68
2022/03/21 07:54:32;;;;;;;1999.90;999.90;;;;;;;;;;6183942;23;20246;-68
2022/03/21 07:57:19;;;;;;;1999.90;999.90;;;;;;;;;;6183833;23;20246;-68
2022/03/21 08:00:05;;;;;;;1999.90;999.90;;;;;;;;;;6183544;23;20511;-68
2022/03/21 08:02:51;;;;;;;1999.90;999.90;;;;;;;;;;6183720;23;20210;-68
2022/03/21 08:05:36;;;;;;;1999.90;999.90;;;;;;;;;;6183643;23;20511;-68
2022/03/21 08:08:21;;;;;;;1999.90;999.90;;;;;;;;;;6182684;23;20273;-69
2022/03/21 08:11:06;;;;;;;1999.90;999.90;;;;;;;;;;6182074;23;20541;-68
2022/03/21 08:13:52;;;;;;;1999.90;999.90;;;;;;;;;;6183234;23;20169;-68
2022/03/21 08:16:37;;;;;;;1999.90;999.90;;;;;;;;;;6183556;23;20245;-69
2022/03/21 08:19:24;;;;;;;1999.90;999.90;;;;;;;;;;6182420;23;20294;-68
2022/03/21 08:22:09;;;;;;;1999.90;999.90;;;;;;;;;;6181902;23;20376;-69
2022/03/21 08:24:54;;;;;;;1999.90;999.90;;;;;;;;;;6183512;23;20175;-69
2022/03/21 08:27:39;;;;;;;1999.90;999.90;;;;;;;;;;6182803;23;20286;-68
2022/03/21 08:30:27;;;;;;;1999.90;999.90;;;;;;;;;;6183265;23;20172;-68
2022/03/21 08:33:12;;;;;;;1999.90;999.90;;;;;;;;;;6183500;23;20629;-69
2022/03/21 08:35:57;;;;;;;1999.90;999.90;;;;;;;;;;6183155;23;20218;-69
2022/03/21 08:38:42;;;;;;;1999.90;999.90;;;;;;;;;;6182447;23;20169;-70
2022/03/21 08:41:27;;;;;;;1999.90;999.90;;;;;;;;;;6183609;23;20218;-69
2022/03/21 08:44:12;;;;;;;1999.90;999.90;;;;;;;;;;6182799;23;20190;-70
2022/03/21 08:46:59;;;;;;;1999.90;999.90;;;;;;;;;;6183567;23;20166;-68
2022/03/21 08:49:44;;;;;;;1999.90;999.90;;;;;;;;;;6181532;23;20292;-68
2022/03/21 08:52:29;;;;;;;1999.90;999.90;;;;;;;;;;6182943;23;20294;-68
2022/03/21 08:55:14;;;;;;;1999.90;999.90;;;;;;;;;;6183751;23;20557;-69
2022/03/21 08:57:59;;;;;;;1999.90;999.90;;;;;;;;;;6184077;23;20296;-69
2022/03/21 09:00:44;;;;;;;1999.90;999.90;;;;;;;;;;6184794;23;20545;-68
2022/03/21 09:03:30;;;;;;;1999.90;999.90;;;;;;;;;;6185178;23;20704;-69
2022/03/21 09:06:15;;;;;;;1999.90;999.90;;;;;;;;;;6185102;23;20165;-69
2022/03/21 09:09:00;;;;;;;1999.90;999.90;;;;;;;;;;6182151;23;20166;-69
2022/03/21 09:11:45;;;;;;;1999.90;999.90;;;;;;;;;;6177216;23;20214;-69
2022/03/21 09:14:30;;;;;;;1999.90;999.90;;;;;;;;;;6175762;23;20624;-69
2022/03/21 09:17:15;;;;;;;1999.90;999.90;;;;;;;;;;6183997;23;20668;-69
2022/03/21 09:20:02;;;;;;;1999.90;999.90;;;;;;;;;;6177577;23;20536;-69
2022/03/21 09:22:47;;;;;;;1999.90;999.90;;;;;;;;;;6182162;23;20234;-69
2022/03/21 09:25:31;;;;;;;1999.90;999.90;;;;;;;;;;6184342;23;20166;-69
2022/03/21 09:28:16;;;;;;;1999.90;999.90;;;;;;;;;;6178355;23;20596;-67
2022/03/21 09:31:01;;;;;;;1999.90;999.90;;;;;;;;;;6183839;23;20205;-68
2022/03/21 09:33:46;;;;;;;1999.90;999.90;;;;;;;;;;6184443;23;20166;-68
2022/03/21 09:36:32;;;;;;;1999.90;999.90;;;;;;;;;;6183663;23;20249;-69
2022/03/21 09:39:17;;;;;;;1999.90;999.90;;;;;;;;;;6183336;23;20181;-69
2022/03/21 09:42:03;;;;;;;1999.90;999.90;;;;;;;;;;6184414;23;20300;-68
2022/03/21 09:44:52;;;;;;;1999.90;999.90;;;;;;;;;;6183461;23;20807;-69
2022/03/21 09:50:44;;;;;;;1999.90;999.90;;;;;;;;;;6183375;23;20225;-69
2022/03/21 09:53:31;;;;;;;1999.90;999.90;;;;;;;;;;6184713;23;20298;-68
2022/03/21 09:56:16;;;;;;;1999.90;999.90;;;;;;;;;;6184445;23;20625;-71
2022/03/21 09:59:01;;;;;;;1999.90;999.90;;;;;;;;;;6181460;23;20677;-72
2022/03/21 10:01:46;;;;;;;1999.90;999.90;;;;;;;;;;6169410;23;20285;-71
2022/03/21 10:04:32;;;;;;;1999.90;999.90;;;;;;;;;;6128897;23;20217;-71
2022/03/21 10:07:23;;;;;;;1999.90;999.90;;;;;;;;;;6183789;23;20605;-72
2022/03/21 10:10:12;;;;;;;1999.90;999.90;;;;;;;;;;6183797;23;20174;-72
2022/03/21 10:12:57;;;;;;;1999.90;999.90;;;;;;;;;;6183657;23;20615;-70
2022/03/21 10:15:42;;;;;;;1999.90;999.90;;;;;;;;;;6183915;23;20168;-71
2022/03/21 10:18:29;;;;;;;1999.90;999.90;;;;;;;;;;6183327;23;20249;-71
2022/03/21 10:21:15;;;;;;;1999.90;999.90;;;;;;;;;;6177552;23;20256;-71
2022/03/21 10:24:02;;;;;;;1999.90;999.90;;;;;;;;;;6184105;23;20189;-70
2022/03/21 10:26:49;;;;;;;1999.90;999.90;;;;;;;;;;6183429;23;20202;-71
2022/03/21 10:29:50;;;;;;;1999.90;999.90;;;;;;;;;;6182673;23;20172;-71
2022/03/21 10:32:36;;;;;;;1999.90;999.90;;;;;;;;;;6167955;23;20267;-71
2022/03/21 10:35:24;;;;;;;1999.90;999.90;;;;;;;;;;6183709;23;20170;-71
2022/03/21 10:38:09;;;;;;;1999.90;999.90;;;;;;;;;;6086875;23;20220;-71
2022/03/21 11:44:20;;;;;;;1999.90;999.90;;;;;;;;;;5094633;27;21045;-71
2022/03/21 11:47:21;;;;;;;1999.90;999.90;;;;;;;;;;5090662;28;20215;-71
2022/03/21 11:50:24;;;;;;;1999.90;999.90;;;;;;;;;;5087798;28;20579;-71
2022/03/21 11:53:10;;;;;;;1999.90;999.90;;;;;;;;;;5080466;28;20223;-68
2022/03/21 11:55:55;;;;;;;1999.90;999.90;;;;;;;;;;5079631;28;20212;-72
2022/03/21 11:58:44;;;;;;;1999.90;999.90;;;;;;;;;;5088312;28;20208;-70
2022/03/21 12:01:30;;;;;;;1999.90;999.90;;;;;;;;;;5088701;28;20223;-69
2022/03/21 12:04:29;;;;;;;1999.90;999.90;;;;;;;;;;5088183;28;20204;-70
2022/03/21 12:07:27;;;;;;;1999.90;999.90;;;;;;;;;;5086956;28;20422;-72
2022/03/21 12:10:32;;;;;;;1999.90;999.90;;;;;;;;;;5087282;28;20278;-70
2022/03/21 12:13:19;;;;;;;1999.90;999.90;;;;;;;;;;5087590;28;20219;-71
2022/03/21 12:16:16;;;;;;;1999.90;999.90;;;;;;;;;;5088764;28;20669;-71
2022/03/21 12:19:04;;;;;;;1999.90;999.90;;;;;;;;;;5087173;28;20585;-70
2022/03/21 12:22:09;;;;;;;1999.90;999.90;;;;;;;;;;5088256;28;20220;-70
2022/03/21 12:24:55;;;;;;;1999.90;999.90;;;;;;;;;;5091657;28;20207;-70
2022/03/21 12:27:41;;;;;;;1999.90;999.90;;;;;;;;;;5086824;28;20317;-69
2022/03/21 12:30:32;;;;;;;1999.90;999.90;;;;;;;;;;5085907;28;20211;-71
2022/03/21 12:33:27;;;;;;;1999.90;999.90;;;;;;;;;;5081518;28;20306;-70
2022/03/21 12:36:30;;;;;;;1999.90;999.90;;;;;;;;;;5087128;28;20200;-71
2022/03/21 12:39:17;;;;;;;1999.90;999.90;;;;;;;;;;5086690;28;20199;-70
2022/03/21 12:42:03;;;;;;;1999.90;999.90;;;;;;;;;;5087380;28;20322;-70
2022/03/21 12:44:48;;;;;;;1999.90;999.90;;;;;;;;;;5076763;28;20205;-70
2022/03/21 12:47:36;;;;;;;1999.90;999.90;;;;;;;;;;5072811;28;20212;-70
2022/03/21 12:50:21;;;;;;;1999.90;999.90;;;;;;;;;;5068935;28;20209;-70
2022/03/21 12:53:09;;;;;;;1999.90;999.90;;;;;;;;;;5054205;28;20596;-70
2022/03/21 12:56:05;;;;;;;1999.90;999.90;;;;;;;;;;5069443;28;20212;-71
2022/03/21 12:58:55;;;;;;;1999.90;999.90;;;;;;;;;;5069282;28;20719;-70
2022/03/21 13:01:42;;;;;;;1999.90;999.90;;;;;;;;;;5073292;28;20224;-71
2022/03/21 13:10:50;;;;;;;1999.90;999.90;;;;;;;;;;5030051;28;20288;-69
2022/03/21 13:13:42;;;;;;;1999.90;999.90;;;;;;;;;;5073402;28;20209;-70
2022/03/21 13:16:28;;;;;;;1999.90;999.90;;;;;;;;;;5073916;28;20217;-71
2022/03/21 13:19:15;;;;;;;1999.90;999.90;;;;;;;;;;5072840;28;20236;-70
2022/03/21 13:22:02;;;;;;;1999.90;999.90;;;;;;;;;;5073695;28;20275;-71
2022/03/21 13:24:49;;;;;;;1999.90;999.90;;;;;;;;;;5072709;28;20576;-71
2022/03/21 13:27:36;;;;;;;1999.90;999.90;;;;;;;;;;5073290;28;20564;-71
2022/03/21 13:30:21;;;;;;;1999.90;999.90;;;;;;;;;;5073583;28;20564;-71
2022/03/21 13:33:06;;;;;;;1999.90;999.90;;;;;;;;;;5072737;28;20244;-71
2022/03/21 13:35:51;;;;;;;1999.90;999.90;;;;;;;;;;5072003;28;20415;-71
2022/03/21 13:38:37;;;;;;;1999.90;999.90;;;;;;;;;;5072074;28;20250;-71
2022/03/21 13:41:22;;;;;;;1999.90;999.90;;;;;;;;;;5071748;28;20221;-70
2022/03/21 13:44:08;;;;;;;1999.90;999.90;;;;;;;;;;5071853;28;20266;-70
2022/03/21 13:47:04;;;;;;;1999.90;999.90;;;;;;;;;;5070581;28;20833;-71
2022/03/21 13:49:51;;;;;;;1999.90;999.90;;;;;;;;;;5069379;28;20208;-71
2022/03/21 13:52:42;;;;;;;1999.90;999.90;;;;;;;;;;5071083;28;20219;-70
2022/03/21 13:55:38;;;;;;;1999.90;999.90;;;;;;;;;;5071731;28;20694;-70
2022/03/21 13:58:27;;;;;;;1999.90;999.90;;;;;;;;;;5066318;28;20204;-71
2022/03/21 14:01:21;;;;;;;1999.90;999.90;;;;;;;;;;5070739;28;20231;-70
2022/03/21 14:04:17;;;;;;;1999.90;999.90;;;;;;;;;;5071915;28;20221;-72
2022/03/21 14:07:03;;;;;;;1999.90;999.90;;;;;;;;;;5070923;28;20693;-71
2022/03/21 14:09:49;;;;;;;1999.90;999.90;;;;;;;;;;5070182;28;20729;-70
2022/03/21 14:12:34;;;;;;;1999.90;999.90;;;;;;;;;;5071372;28;20754;-70
2022/03/21 14:15:24;;;;;;;1999.90;999.90;;;;;;;;;;5072230;28;20211;-69
2022/03/21 14:18:11;;;;;;;1999.90;999.90;;;;;;;;;;5069989;28;20232;-71
2022/03/21 14:20:56;;;;;;;1999.90;999.90;;;;;;;;;;5071409;28;20454;-71
2022/03/21 14:23:42;;;;;;;1999.90;999.90;;;;;;;;;;5072324;28;20561;-71
2022/03/21 14:26:34;;;;;;;1999.90;999.90;;;;;;;;;;5072143;28;20687;-70
2022/03/21 14:29:19;;;;;;;1999.90;999.90;;;;;;;;;;5071356;28;20670;-72
2022/03/21 14:32:04;;;;;;;1999.90;999.90;;;;;;;;;;5072326;28;20224;-71
2022/03/21 14:34:51;;;;;;;1999.90;999.90;;;;;;;;;;5071712;28;20201;-70
2022/03/21 14:37:36;;;;;;;1999.90;999.90;;;;;;;;;;5072109;28;20280;-70
2022/03/21 14:40:21;;;;;;;1999.90;999.90;;;;;;;;;;5071961;28;20200;-70
2022/03/21 14:43:06;;;;;;;1999.90;999.90;;;;;;;;;;5071521;28;20208;-71
2022/03/21 14:45:51;;;;;;;1999.90;999.90;;;;;;;;;;5071468;28;20335;-70
2022/03/21 14:48:36;;;;;;;1999.90;999.90;;;;;;;;;;5070329;28;20208;-72
2022/03/21 14:51:22;;;;;;;1999.90;999.90;;;;;;;;;;5053361;28;20315;-70
2022/03/21 14:54:08;;;;;;;1999.90;999.90;;;;;;;;;;5071671;28;20611;-71
2022/03/21 14:56:54;;;;;;;1999.90;999.90;;;;;;;;;;5071338;28;20204;-71
2022/03/21 14:59:39;;;;;;;1999.90;999.90;;;;;;;;;;5072040;28;20279;-71
2022/03/21 15:02:24;;;;;;;1999.90;999.90;;;;;;;;;;5069929;28;20224;-70
2022/03/21 15:05:09;;;;;;;1999.90;999.90;;;;;;;;;;5071143;28;20725;-71
2022/03/21 15:07:55;;;;;;;1999.90;999.90;;;;;;;;;;5070251;28;20488;-69
2022/03/21 15:10:41;;;;;;;1999.90;999.90;;;;;;;;;;5070459;28;20322;-69
2022/03/21 15:13:26;;;;;;;1999.90;999.90;;;;;;;;;;5071153;28;20225;-70
2022/03/21 15:16:13;;;;;;;1999.90;999.90;;;;;;;;;;5070510;28;20525;-71
2022/03/21 15:18:57;;;;;;;1999.90;999.90;;;;;;;;;;5070199;28;21043;-71
2022/03/21 15:21:47;;;;;;;1999.90;999.90;;;;;;;;;;5071616;28;20224;-71
2022/03/21 15:24:35;;;;;;;1999.90;999.90;;;;;;;;;;5071316;28;20195;-71
2022/03/21 15:27:20;;;;;;;1999.90;999.90;;;;;;;;;;5071077;28;20204;-70
2022/03/21 15:30:06;;;;;;;1999.90;999.90;;;;;;;;;;5050956;28;20208;-70
2022/03/21 15:32:51;;;;;;;1999.90;999.90;;;;;;;;;;5051138;28;20363;-70
2022/03/21 15:35:36;;;;;;;1999.90;999.90;;;;;;;;;;5051195;28;20212;-71
2022/03/21 15:41:43;;;;;;;1999.90;999.90;;;;;;;;;;5056094;28;20628;-71
2022/03/21 15:44:28;;;;;;;1999.90;999.90;;;;;;;;;;5069547;28;20201;-72
2022/03/21 15:47:13;;;;;;;1999.90;999.90;;;;;;;;;;5069392;28;20520;-71
2022/03/21 15:49:59;;;;;;;1999.90;999.90;;;;;;;;;;5070879;28;20203;-71
2022/03/21 15:52:45;;;;;;;1999.90;999.90;;;;;;;;;;5070544;28;20247;-70
2022/03/21 15:55:30;;;;;;;1999.90;999.90;;;;;;;;;;5067866;28;20282;-71
2022/03/21 15:58:18;;;;;;;1999.90;999.90;;;;;;;;;;5050660;28;20331;-71
2022/03/21 16:01:04;;;;;;;1999.90;999.90;;;;;;;;;;5051455;28;20229;-70
2022/03/21 16:03:50;;;;;;;1999.90;999.90;;;;;;;;;;5060945;28;20224;-71
2022/03/21 16:06:35;;;;;;;1999.90;999.90;;;;;;;;;;5071550;28;20223;-71
2022/03/21 16:09:19;;;;;;;1999.90;999.90;;;;;;;;;;5070551;28;20204;-70
2022/03/21 16:12:05;;;;;;;1999.90;999.90;;;;;;;;;;5070613;28;20228;-72
2022/03/21 16:14:51;;;;;;;1999.90;999.90;;;;;;;;;;5071078;28;20347;-71
2022/03/21 16:17:37;;;;;;;1999.90;999.90;;;;;;;;;;5070386;28;20201;-70
2022/03/21 16:20:22;;;;;;;1999.90;999.90;;;;;;;;;;5074295;28;20203;-71
2022/03/21 16:23:07;;;;;;;1999.90;999.90;;;;;;;;;;5075170;28;20197;-71
2022/03/21 16:25:52;;;;;;;1999.90;999.90;;;;;;;;;;5074628;28;20204;-70
2022/03/21 16:28:38;;;;;;;1999.90;999.90;;;;;;;;;;5073954;28;20569;-70
2022/03/21 16:31:25;;;;;;;1999.90;999.90;;;;;;;;;;5074549;28;20224;-71
2022/03/21 16:34:10;;;;;;;1999.90;999.90;;;;;;;;;;5074961;28;20214;-71
2022/03/21 16:36:55;;;;;;;1999.90;999.90;;;;;;;;;;5074688;28;20209;-70
2022/03/21 16:39:40;;;;;;;1999.90;999.90;;;;;;;;;;5074205;28;20232;-70
2022/03/21 16:42:25;;;;;;;1999.90;999.90;;;;;;;;;;5074487;28;20834;-70
2022/03/21 16:45:10;;;;;;;1999.90;999.90;;;;;;;;;;5074081;28;20407;-71
2022/03/21 16:47:58;;;;;;;1999.90;999.90;;;;;;;;;;5073941;28;20212;-71
2022/03/21 16:50:43;;;;;;;1999.90;999.90;;;;;;;;;;5074248;28;20632;-71
2022/03/21 16:53:28;;;;;;;1999.90;999.90;;;;;;;;;;5076863;28;20220;-68
2022/03/21 16:56:13;;;;;;;1999.90;999.90;;;;;;;;;;5076525;28;20609;-71
2022/03/21 16:58:58;;;;;;;1999.90;999.90;;;;;;;;;;5076209;28;20286;-70
2022/03/21 17:01:45;;;;;;;1999.90;999.90;;;;;;;;;;5075146;28;20302;-69
2022/03/21 17:04:33;;;;;;;1999.90;999.90;;;;;;;;;;5074370;28;20200;-71
2022/03/21 17:07:21;;;;;;;1999.90;999.90;;;;;;;;;;5074020;28;20327;-69
2022/03/21 17:10:08;;;;;;;1999.90;999.90;;;;;;;;;;5073826;28;20205;-70
2022/03/21 17:12:53;;;;;;;1999.90;999.90;;;;;;;;;;5073825;28;20728;-70
2022/03/21 17:15:39;;;;;;;1999.90;999.90;;;;;;;;;;5073782;28;20612;-70
2022/03/21 17:24:30;;;;;;;1999.90;999.90;;;;;;;;;;5073385;28;20250;-69
2022/03/21 17:27:15;;;;;;;1999.90;999.90;;;;;;;;;;5071584;28;20753;-69
2022/03/21 17:30:00;;;;;;;1999.90;999.90;;;;;;;;;;5071205;28;20340;-71
2022/03/21 17:32:45;;;;;;;1999.90;999.90;;;;;;;;;;5058235;28;20423;-70
2022/03/21 17:35:31;;;;;;;1999.90;999.90;;;;;;;;;;5071546;28;20197;-71
2022/03/21 17:38:18;;;;;;;1999.90;999.90;;;;;;;;;;5072918;28;20228;-69
2022/03/21 17:41:03;;;;;;;1999.90;999.90;;;;;;;;;;5073347;28;20243;-70
2022/03/21 17:43:48;;;;;;;1999.90;999.90;;;;;;;;;;5073107;28;20710;-72
2022/03/21 17:46:33;;;;;;;1999.90;999.90;;;;;;;;;;5071426;28;20205;-69
2022/03/21 17:49:18;;;;;;;1999.90;999.90;;;;;;;;;;5071982;28;20204;-70
2022/03/21 17:52:04;;;;;;;1999.90;999.90;;;;;;;;;;5073123;28;20599;-70
2022/03/21 17:54:50;;;;;;;1999.90;999.90;;;;;;;;;;5073083;28;20241;-71
2022/03/21 17:57:37;;;;;;;1999.90;999.90;;;;;;;;;;5052800;28;20567;-71
2022/03/21 18:00:22;;;;;;;1999.90;999.90;;;;;;;;;;5053223;28;20224;-71
2022/03/21 18:03:07;;;;;;;1999.90;999.90;;;;;;;;;;5062178;28;20702;-70
2022/03/21 18:05:53;;;;;;;1999.90;999.90;;;;;;;;;;5073105;28;21101;-71
2022/03/21 18:08:39;;;;;;;1999.90;999.90;;;;;;;;;;5071912;28;20201;-71
2022/03/21 18:11:25;;;;;;;1999.90;999.90;;;;;;;;;;5071956;28;20410;-70
2022/03/21 18:14:10;;;;;;;1999.90;999.90;;;;;;;;;;5072420;28;20347;-68
2022/03/21 18:16:55;;;;;;;1999.90;999.90;;;;;;;;;;5072704;28;20691;-71
2022/03/21 18:22:33;;;;;;;1999.90;999.90;;;;;;;;;;5072240;28;20274;-71
2022/03/21 18:25:18;;;;;;;1999.90;999.90;;;;;;;;;;5052755;28;20221;-70
2022/03/21 18:28:05;;;;;;;1999.90;999.90;;;;;;;;;;5069085;28;20213;-71
2022/03/21 18:30:51;;;;;;;1999.90;999.90;;;;;;;;;;5072284;28;20358;-71
2022/03/21 18:33:36;;;;;;;1999.90;999.90;;;;;;;;;;5072362;28;20200;-71
2022/03/21 18:36:21;;;;;;;1999.90;999.90;;;;;;;;;;5072382;28;20203;-70
2022/03/21 18:39:06;;;;;;;1999.90;999.90;;;;;;;;;;5071521;28;20333;-69
2022/03/21 18:41:52;;;;;;;1999.90;999.90;;;;;;;;;;5071814;28;20343;-71
2022/03/21 18:44:42;;;;;;;1999.90;999.90;;;;;;;;;;5072190;28;20199;-71
2022/03/21 18:47:27;;;;;;;1999.90;999.90;;;;;;;;;;5070838;28;20398;-70
2022/03/21 18:50:12;;;;;;;1999.90;999.90;;;;;;;;;;5071427;28;20579;-70
2022/03/21 18:52:57;;;;;;;1999.90;999.90;;;;;;;;;;5072271;28;20705;-71
2022/03/21 18:55:42;;;;;;;1999.90;999.90;;;;;;;;;;5071690;28;20227;-71
2022/03/21 18:58:27;;;;;;;1999.90;999.90;;;;;;;;;;5071176;28;20709;-70
2022/03/21 19:01:13;;;;;;;1999.90;999.90;;;;;;;;;;5071789;28;20419;-70
2022/03/21 19:03:58;;;;;;;1999.90;999.90;;;;;;;;;;5072070;28;20327;-71
2022/03/21 19:06:43;;;;;;;1999.90;999.90;;;;;;;;;;5071888;28;20642;-71
2022/03/21 19:09:29;;;;;;;1999.90;999.90;;;;;;;;;;5071001;28;20211;-71
2022/03/21 19:12:14;;;;;;;1999.90;999.90;;;;;;;;;;5071801;28;20636;-71
2022/03/21 19:14:59;;;;;;;1999.90;999.90;;;;;;;;;;5071616;28;20220;-71
2022/03/21 19:17:47;;;;;;;1999.90;999.90;;;;;;;;;;5071517;28;20208;-71
2022/03/21 19:20:32;;;;;;;1999.90;999.90;;;;;;;;;;5071502;28;20347;-70
2022/03/21 19:23:16;;;;;;;1999.90;999.90;;;;;;;;;;5071879;28;20208;-71
2022/03/21 19:26:01;;;;;;;1999.90;999.90;;;;;;;;;;5071599;28;20204;-72
2022/03/21 19:28:46;;;;;;;1999.90;999.90;;;;;;;;;;5071068;28;20227;-71
2022/03/21 19:31:33;;;;;;;1999.90;999.90;;;;;;;;;;5071182;28;20226;-70
2022/03/21 19:34:20;;;;;;;1999.90;999.90;;;;;;;;;;5071608;28;20226;-70
2022/03/21 19:37:05;;;;;;;1999.90;999.90;;;;;;;;;;5071561;28;20289;-71
2022/03/21 19:39:50;;;;;;;1999.90;999.90;;;;;;;;;;5071305;28;20295;-71
2022/03/21 19:42:44;;;;;;;1999.90;999.90;;;;;;;;;;5071561;28;20261;-71
2022/03/21 19:45:30;;;;;;;1999.90;999.90;;;;;;;;;;5070908;28;20411;-71
2022/03/21 19:48:15;;;;;;;1999.90;999.90;;;;;;;;;;5070499;28;20199;-71
2022/03/21 19:51:01;;;;;;;1999.90;999.90;;;;;;;;;;5071479;28;20752;-71
2022/03/21 19:53:46;;;;;;;1999.90;999.90;;;;;;;;;;5071954;28;20254;-70
2022/03/21 19:56:31;;;;;;;1999.90;999.90;;;;;;;;;;5075319;28;20212;-71
2022/03/21 19:59:16;;;;;;;1999.90;999.90;;;;;;;;;;5074804;28;20203;-71
2022/03/21 20:02:01;;;;;;;1999.90;999.90;;;;;;;;;;5075222;28;20598;-71
2022/03/21 20:04:46;;;;;;;1999.90;999.90;;;;;;;;;;5075197;28;20293;-71
2022/03/21 20:07:32;;;;;;;1999.90;999.90;;;;;;;;;;5075265;28;20243;-71
2022/03/21 20:10:17;;;;;;;1999.90;999.90;;;;;;;;;;5075047;28;20585;-70
2022/03/21 20:13:03;;;;;;;1999.90;999.90;;;;;;;;;;5075072;28;20935;-71
2022/03/21 20:15:47;;;;;;;1999.90;999.90;;;;;;;;;;5074170;28;20423;-70
2022/03/21 20:18:32;;;;;;;1999.90;999.90;;;;;;;;;;5074437;28;20216;-71
2022/03/21 20:21:17;;;;;;;1999.90;999.90;;;;;;;;;;5074858;28;20278;-71
2022/03/21 20:24:03;;;;;;;1999.90;999.90;;;;;;;;;;5075019;28;20313;-71
2022/03/21 20:26:49;;;;;;;1999.90;999.90;;;;;;;;;;5074941;28;20203;-71
2022/03/21 20:29:34;;;;;;;1999.90;999.90;;;;;;;;;;5074131;28;20286;-71
2022/03/21 20:32:19;;;;;;;1999.90;999.90;;;;;;;;;;5074429;28;20230;-71
2022/03/21 20:35:04;;;;;;;1999.90;999.90;;;;;;;;;;5074409;28;20215;-70
2022/03/21 20:37:50;;;;;;;1999.90;999.90;;;;;;;;;;5073704;28;20211;-69
2022/03/21 20:40:36;;;;;;;1999.90;999.90;;;;;;;;;;5074708;28;20208;-71
2022/03/21 20:43:21;;;;;;;1999.90;999.90;;;;;;;;;;5074262;28;20331;-71
2022/03/21 20:46:09;;;;;;;1999.90;999.90;;;;;;;;;;5074433;28;20311;-71
2022/03/21 20:48:54;;;;;;;1999.90;999.90;;;;;;;;;;5073817;28;20682;-70
2022/03/21 20:51:38;;;;;;;1999.90;999.90;;;;;;;;;;5074368;28;20261;-69
2022/03/21 20:54:24;;;;;;;1999.90;999.90;;;;;;;;;;5074116;28;20284;-72
2022/03/21 20:57:10;;;;;;;1999.90;999.90;;;;;;;;;;5074437;28;20567;-71
2022/03/21 20:59:55;;;;;;;1999.90;999.90;;;;;;;;;;5073757;28;20683;-71
2022/03/21 21:02:40;;;;;;;1999.90;999.90;;;;;;;;;;5074066;28;20287;-70
2022/03/21 21:05:25;;;;;;;1999.90;999.90;;;;;;;;;;5073812;28;20244;-71
2022/03/21 21:08:11;;;;;;;1999.90;999.90;;;;;;;;;;5073324;28;20207;-71
2022/03/21 21:10:56;;;;;;;1999.90;999.90;;;;;;;;;;5074206;28;20306;-71
2022/03/21 21:13:43;;;;;;;1999.90;999.90;;;;;;;;;;5074107;28;20211;-70
2022/03/21 21:16:27;;;;;;;1999.90;999.90;;;;;;;;;;5073830;28;20224;-71
2022/03/21 21:19:14;;;;;;;1999.90;999.90;;;;;;;;;;5072019;28;20402;-70
2022/03/21 21:21:59;;;;;;;1999.90;999.90;;;;;;;;;;5073850;28;20231;-71
2022/03/21 21:24:44;;;;;;;1999.90;999.90;;;;;;;;;;5074051;28;20294;-71
2022/03/21 21:27:29;;;;;;;1999.90;999.90;;;;;;;;;;5070309;28;20702;-70
2022/03/21 21:30:16;;;;;;;1999.90;999.90;;;;;;;;;;5069715;28;20199;-71
2022/03/21 21:33:01;;;;;;;1999.90;999.90;;;;;;;;;;5073260;28;20286;-71
2022/03/21 21:35:46;;;;;;;1999.90;999.90;;;;;;;;;;5073467;28;20712;-71
2022/03/21 21:38:31;;;;;;;1999.90;999.90;;;;;;;;;;5072757;28;20692;-68
2022/03/21 21:41:16;;;;;;;1999.90;999.90;;;;;;;;;;5073706;28;20309;-68
2022/03/21 21:44:01;;;;;;;1999.90;999.90;;;;;;;;;;5073719;28;20680;-71
2022/03/21 21:46:48;;;;;;;1999.90;999.90;;;;;;;;;;5073719;28;20188;-71
2022/03/21 21:49:33;;;;;;;1999.90;999.90;;;;;;;;;;5072855;28;20295;-71
2022/03/21 21:52:18;;;;;;;1999.90;999.90;;;;;;;;;;5073140;28;20227;-71
2022/03/21 21:55:03;;;;;;;1999.90;999.90;;;;;;;;;;5073089;28;20620;-72
2022/03/21 21:57:48;;;;;;;1999.90;999.90;;;;;;;;;;5072672;28;20217;-69
